Time;durP1;ratioP1;P1;durP2;ratioP2;P2;SDS_P1;SDS_P2;PMS_P1;PMS_P2;Temp;Humidity;BMP_temperature;BMP_pressure;BME280_temperature;BME280_humidity;BME280_pressure;Samples;Min_cycle;Max_cycle;Signal;HPM_P1;HPM_P2
2022/03/08 00:00:50;;;;;;;3.95;2.20;;;;;;;;;;5010479;28;20530;-79
2022/03/08 00:03:15;;;;;;;4.38;2.30;;;;;;;;;;4994212;28;20111;-78
2022/03/08 00:05:40;;;;;;;4.43;2.53;;;;;;;;;;4993880;28;20038;-79
2022/03/08 00:08:06;;;;;;;3.65;2.25;;;;;;;;;;5010340;28;20464;-79
2022/03/08 00:10:31;;;;;;;4.18;2.50;;;;;;;;;;5010636;28;20452;-79
2022/03/08 00:12:57;;;;;;;4.43;2.50;;;;;;;;;;4995885;28;20073;-79
2022/03/08 00:15:24;;;;;;;4.13;2.22;;;;;;;;;;4978143;28;20381;-79
2022/03/08 00:17:50;;;;;;;3.40;2.47;;;;;;;;;;4993154;28;20049;-79
2022/03/08 00:20:15;;;;;;;3.47;2.08;;;;;;;;;;4993822;28;20041;-79
2022/03/08 00:22:41;;;;;;;3.47;2.08;;;;;;;;;;4977862;28;20037;-79
2022/03/08 00:25:07;;;;;;;3.53;2.05;;;;;;;;;;4994170;28;20057;-79
2022/03/08 00:27:33;;;;;;;3.50;1.95;;;;;;;;;;4993909;28;20088;-79
2022/03/08 00:29:58;;;;;;;4.07;2.72;;;;;;;;;;4993798;28;20117;-78
2022/03/08 00:32:24;;;;;;;3.78;2.22;;;;;;;;;;4994302;28;20038;-79
2022/03/08 00:34:49;;;;;;;3.38;2.17;;;;;;;;;;4993326;28;20110;-79
2022/03/08 00:37:15;;;;;;;3.05;2.03;;;;;;;;;;4993522;28;20112;-79
2022/03/08 00:39:40;;;;;;;3.35;2.08;;;;;;;;;;4993901;28;20049;-79
2022/03/08 00:42:11;;;;;;;3.25;2.05;;;;;;;;;;4993641;28;20049;-79
2022/03/08 00:44:38;;;;;;;3.22;1.90;;;;;;;;;;4998378;28;20046;-79
2022/03/08 00:47:04;;;;;;;3.25;2.03;;;;;;;;;;4997407;28;20396;-79
2022/03/08 00:49:30;;;;;;;4.03;2.08;;;;;;;;;;4996851;28;20025;-79
2022/03/08 00:51:55;;;;;;;2.80;1.70;;;;;;;;;;4997280;28;20117;-79
2022/03/08 00:54:20;;;;;;;3.70;2.05;;;;;;;;;;4997536;28;20500;-79
2022/03/08 00:56:46;;;;;;;2.90;1.90;;;;;;;;;;4997099;28;20065;-79
2022/03/08 00:59:11;;;;;;;3.45;1.95;;;;;;;;;;4994109;28;20031;-79
2022/03/08 01:01:37;;;;;;;3.03;1.80;;;;;;;;;;4961706;28;20034;-79
2022/03/08 01:04:03;;;;;;;3.17;1.75;;;;;;;;;;4977089;28;20030;-79
2022/03/08 01:06:28;;;;;;;2.75;1.90;;;;;;;;;;4977772;28;20089;-79
2022/03/08 01:08:54;;;;;;;3.55;2.03;;;;;;;;;;4993779;28;20044;-79
2022/03/08 01:11:19;;;;;;;3.63;1.98;;;;;;;;;;4997221;28;20034;-79
2022/03/08 01:13:45;;;;;;;2.97;1.85;;;;;;;;;;4996300;28;20120;-78
2022/03/08 01:16:10;;;;;;;2.63;1.52;;;;;;;;;;5013119;28;20081;-79
2022/03/08 01:18:36;;;;;;;3.15;1.75;;;;;;;;;;5012790;28;20049;-79
2022/03/08 01:21:01;;;;;;;2.90;1.77;;;;;;;;;;4996748;28;20419;-79
2022/03/08 01:23:27;;;;;;;2.40;1.55;;;;;;;;;;5007330;28;20037;-78
2022/03/08 01:25:52;;;;;;;2.47;1.65;;;;;;;;;;4996692;28;20026;-79
2022/03/08 01:28:18;;;;;;;2.65;1.75;;;;;;;;;;4996991;28;20054;-79
2022/03/08 01:30:43;;;;;;;1.98;1.30;;;;;;;;;;4997262;28;20038;-79
2022/03/08 01:33:09;;;;;;;2.83;1.75;;;;;;;;;;4996115;28;20488;-78
2022/03/08 01:35:34;;;;;;;3.72;1.95;;;;;;;;;;4996527;28;20034;-79
2022/03/08 01:38:00;;;;;;;2.13;1.70;;;;;;;;;;4996092;28;20073;-79
2022/03/08 01:40:25;;;;;;;2.65;1.60;;;;;;;;;;4996711;28;20515;-79
2022/03/08 01:42:51;;;;;;;2.75;1.80;;;;;;;;;;4996500;28;20042;-79
2022/03/08 01:45:18;;;;;;;2.90;2.38;;;;;;;;;;4996674;28;20072;-79
2022/03/08 01:47:43;;;;;;;2.60;1.70;;;;;;;;;;4995740;28;20045;-79
2022/03/08 01:50:10;;;;;;;2.95;1.90;;;;;;;;;;4996472;28;20034;-79
2022/03/08 01:52:35;;;;;;;3.38;1.45;;;;;;;;;;4996330;28;20041;-79
2022/03/08 01:55:01;;;;;;;2.35;1.50;;;;;;;;;;4995670;28;20095;-79
2022/03/08 01:57:26;;;;;;;1.70;1.27;;;;;;;;;;4996388;28;20037;-79
2022/03/08 01:59:54;;;;;;;2.97;1.55;;;;;;;;;;5003930;28;20041;-79
2022/03/08 02:02:20;;;;;;;2.33;1.45;;;;;;;;;;4992477;28;20034;-79
2022/03/08 02:04:46;;;;;;;2.45;1.60;;;;;;;;;;5009028;28;20030;-79
2022/03/08 02:07:11;;;;;;;2.20;1.52;;;;;;;;;;5028340;28;20053;-79
2022/03/08 02:09:37;;;;;;;2.15;1.30;;;;;;;;;;4996059;28;20121;-79
2022/03/08 02:12:03;;;;;;;2.83;1.55;;;;;;;;;;4995820;28;20049;-79
2022/03/08 02:14:29;;;;;;;2.40;1.60;;;;;;;;;;4996413;28;20037;-79
2022/03/08 02:16:54;;;;;;;2.28;1.40;;;;;;;;;;4995380;28;20136;-79
2022/03/08 02:19:20;;;;;;;2.05;1.35;;;;;;;;;;4995641;28;20030;-79
2022/03/08 02:21:45;;;;;;;2.00;1.30;;;;;;;;;;4995752;28;20594;-79
2022/03/08 02:24:10;;;;;;;2.72;1.38;;;;;;;;;;4995329;28;20066;-79
2022/03/08 02:26:36;;;;;;;2.45;1.50;;;;;;;;;;4995685;28;20108;-79
2022/03/08 02:29:03;;;;;;;2.72;1.30;;;;;;;;;;4995682;28;20037;-78
2022/03/08 02:31:29;;;;;;;2.03;1.20;;;;;;;;;;4979223;28;20037;-79
2022/03/08 02:33:55;;;;;;;3.33;1.42;;;;;;;;;;4995630;28;20030;-79
2022/03/08 02:36:20;;;;;;;2.50;1.40;;;;;;;;;;4995133;28;20053;-79
2022/03/08 02:38:46;;;;;;;2.42;1.30;;;;;;;;;;4995504;28;20068;-79
2022/03/08 02:41:11;;;;;;;2.67;1.40;;;;;;;;;;4995415;28;20038;-80
2022/03/08 02:43:36;;;;;;;2.30;1.40;;;;;;;;;;4995447;28;20040;-79
2022/03/08 02:46:02;;;;;;;2.35;1.30;;;;;;;;;;4994604;28;20634;-79
2022/03/08 02:48:29;;;;;;;2.28;1.40;;;;;;;;;;4995117;28;20062;-78
2022/03/08 02:50:55;;;;;;;1.98;1.33;;;;;;;;;;4995334;28;20030;-79
2022/03/08 02:53:21;;;;;;;2.15;1.35;;;;;;;;;;4995123;28;20066;-79
2022/03/08 02:55:47;;;;;;;2.20;1.20;;;;;;;;;;4979202;28;20046;-79
2022/03/08 02:58:13;;;;;;;1.95;1.25;;;;;;;;;;4995003;28;20462;-79
2022/03/08 03:00:38;;;;;;;3.13;1.27;;;;;;;;;;4990283;28;20073;-79
2022/03/08 03:03:04;;;;;;;2.38;1.40;;;;;;;;;;4995076;28;20040;-79
2022/03/08 03:05:30;;;;;;;3.13;1.42;;;;;;;;;;4994060;28;20037;-79
2022/03/08 03:07:56;;;;;;;2.33;1.40;;;;;;;;;;4978537;28;20038;-79
2022/03/08 03:10:22;;;;;;;2.10;1.20;;;;;;;;;;4994768;28;20511;-79
2022/03/08 03:12:48;;;;;;;2.78;1.38;;;;;;;;;;4978818;28;20036;-79
2022/03/08 03:15:14;;;;;;;1.92;1.23;;;;;;;;;;4994459;28;20076;-79
2022/03/08 03:17:39;;;;;;;1.42;0.95;;;;;;;;;;4994411;28;20496;-79
2022/03/08 03:20:06;;;;;;;3.03;1.38;;;;;;;;;;4994548;28;20038;-79
2022/03/08 03:22:31;;;;;;;1.67;1.00;;;;;;;;;;4994921;28;20037;-79
2022/03/08 03:24:57;;;;;;;2.90;1.48;;;;;;;;;;4994372;28;20038;-79
2022/03/08 03:27:22;;;;;;;1.90;1.25;;;;;;;;;;4994584;28;20111;-79
2022/03/08 03:29:48;;;;;;;1.95;1.30;;;;;;;;;;4994344;28;20069;-79
2022/03/08 03:32:13;;;;;;;2.17;1.30;;;;;;;;;;4994929;28;20035;-79
2022/03/08 03:34:39;;;;;;;1.77;1.10;;;;;;;;;;4994646;28;20084;-79
2022/03/08 03:37:04;;;;;;;1.88;1.10;;;;;;;;;;4994299;28;20042;-79
2022/03/08 03:39:30;;;;;;;1.98;1.08;;;;;;;;;;4994212;28;20420;-79
2022/03/08 03:41:55;;;;;;;1.88;1.13;;;;;;;;;;4994571;28;20481;-80
2022/03/08 03:44:21;;;;;;;1.83;0.90;;;;;;;;;;4994286;28;20042;-79
2022/03/08 03:46:46;;;;;;;1.67;1.05;;;;;;;;;;4994614;28;20420;-79
2022/03/08 03:49:12;;;;;;;2.03;1.05;;;;;;;;;;4994375;28;20037;-78
2022/03/08 03:51:37;;;;;;;2.28;1.30;;;;;;;;;;4994373;28;20041;-79
2022/03/08 03:54:03;;;;;;;1.50;1.00;;;;;;;;;;4993930;28;20064;-79
2022/03/08 03:56:28;;;;;;;2.33;1.35;;;;;;;;;;4994237;28;20042;-78
2022/03/08 03:58:53;;;;;;;1.65;1.17;;;;;;;;;;4991210;28;20041;-79
2022/03/08 04:01:19;;;;;;;1.70;1.27;;;;;;;;;;4991053;28;20042;-79
2022/03/08 04:03:44;;;;;;;2.13;1.20;;;;;;;;;;4975011;28;20417;-79
2022/03/08 04:06:10;;;;;;;2.13;1.33;;;;;;;;;;4974891;28;20109;-79
2022/03/08 04:08:35;;;;;;;2.25;1.25;;;;;;;;;;4990966;28;20424;-79
2022/03/08 04:11:01;;;;;;;1.65;1.00;;;;;;;;;;4992819;28;20516;-79
2022/03/08 04:13:26;;;;;;;2.45;1.30;;;;;;;;;;4993745;28;20081;-78
2022/03/08 04:15:52;;;;;;;1.67;1.08;;;;;;;;;;4993750;28;20045;-79
2022/03/08 04:18:18;;;;;;;2.55;0.90;;;;;;;;;;4997805;28;20038;-79
2022/03/08 04:20:43;;;;;;;1.80;1.02;;;;;;;;;;4997915;28;20169;-79
2022/03/08 04:23:09;;;;;;;1.70;1.10;;;;;;;;;;4998000;28;20087;-79
2022/03/08 04:25:34;;;;;;;2.25;1.50;;;;;;;;;;4981696;28;20022;-79
2022/03/08 04:28:01;;;;;;;2.08;1.00;;;;;;;;;;4997905;28;20040;-79
2022/03/08 04:30:27;;;;;;;1.65;0.98;;;;;;;;;;4998159;28;20038;-79
2022/03/08 04:32:52;;;;;;;1.73;0.98;;;;;;;;;;4997784;28;20046;-79
2022/03/08 04:35:18;;;;;;;2.50;1.50;;;;;;;;;;4997612;28;20037;-79
2022/03/08 04:37:44;;;;;;;1.63;0.90;;;;;;;;;;4997536;28;20116;-79
2022/03/08 04:40:10;;;;;;;2.00;1.02;;;;;;;;;;4997467;28;20046;-78
2022/03/08 04:42:35;;;;;;;1.60;0.95;;;;;;;;;;4997620;28;20057;-78
2022/03/08 04:45:00;;;;;;;1.80;1.23;;;;;;;;;;4997709;28;20034;-79
2022/03/08 04:47:26;;;;;;;1.95;1.30;;;;;;;;;;4997236;28;20424;-79
2022/03/08 04:49:51;;;;;;;1.83;1.40;;;;;;;;;;4993569;28;20050;-79
2022/03/08 04:52:17;;;;;;;2.58;1.23;;;;;;;;;;4978024;28;20034;-79
2022/03/08 04:54:42;;;;;;;1.88;1.40;;;;;;;;;;4978096;28;20057;-79
2022/03/08 04:57:08;;;;;;;1.80;1.10;;;;;;;;;;4985790;28;20053;-79
2022/03/08 04:59:33;;;;;;;1.42;0.90;;;;;;;;;;4993952;28;20045;-79
2022/03/08 05:01:59;;;;;;;2.60;1.05;;;;;;;;;;4977980;28;20038;-79
2022/03/08 05:04:24;;;;;;;1.90;0.93;;;;;;;;;;4977753;28;20038;-79
2022/03/08 05:06:50;;;;;;;2.00;1.50;;;;;;;;;;4977819;28;20046;-79
2022/03/08 05:09:16;;;;;;;1.75;1.23;;;;;;;;;;4977505;28;20046;-79
2022/03/08 05:11:42;;;;;;;2.30;1.08;;;;;;;;;;4981075;28;20042;-79
2022/03/08 05:14:07;;;;;;;1.83;0.95;;;;;;;;;;4997003;28;20401;-79
2022/03/08 05:16:33;;;;;;;2.25;1.27;;;;;;;;;;4996810;28;20041;-79
2022/03/08 05:18:58;;;;;;;1.92;0.98;;;;;;;;;;4996313;28;20173;-79
2022/03/08 05:21:24;;;;;;;2.20;1.33;;;;;;;;;;4995789;28;20037;-79
2022/03/08 05:23:49;;;;;;;2.25;1.08;;;;;;;;;;4994865;28;20101;-78
2022/03/08 05:26:15;;;;;;;2.08;1.00;;;;;;;;;;4979742;28;20034;-78
2022/03/08 05:28:42;;;;;;;2.13;1.17;;;;;;;;;;4994577;28;20049;-79
2022/03/08 05:31:09;;;;;;;2.10;1.10;;;;;;;;;;5011674;28;20069;-80
2022/03/08 05:33:35;;;;;;;2.20;1.45;;;;;;;;;;4995364;28;20040;-79
2022/03/08 05:36:01;;;;;;;1.50;1.10;;;;;;;;;;4995632;28;20038;-78
2022/03/08 05:38:27;;;;;;;2.30;0.98;;;;;;;;;;4979377;28;20084;-79
2022/03/08 05:40:52;;;;;;;2.28;1.38;;;;;;;;;;4995887;28;20527;-79
2022/03/08 05:43:18;;;;;;;1.70;0.93;;;;;;;;;;4995230;28;20037;-79
2022/03/08 05:45:43;;;;;;;2.53;1.05;;;;;;;;;;4995192;28;20505;-80
2022/03/08 05:48:09;;;;;;;1.95;1.05;;;;;;;;;;4995660;28;20038;-79
2022/03/08 05:50:35;;;;;;;1.92;1.30;;;;;;;;;;4994904;28;20045;-79
2022/03/08 05:53:00;;;;;;;1.90;1.20;;;;;;;;;;5012682;28;20041;-79
2022/03/08 05:55:26;;;;;;;1.70;1.08;;;;;;;;;;4995194;28;20116;-79
2022/03/08 05:57:51;;;;;;;1.73;1.00;;;;;;;;;;4995762;28;20064;-79
2022/03/08 06:00:17;;;;;;;2.15;1.30;;;;;;;;;;4993148;28;20039;-79
2022/03/08 06:02:42;;;;;;;2.45;1.20;;;;;;;;;;4975995;28;20088;-78
2022/03/08 06:05:08;;;;;;;1.67;1.02;;;;;;;;;;4976899;28;20044;-79
2022/03/08 06:07:33;;;;;;;1.50;0.98;;;;;;;;;;4976634;28;20069;-80
2022/03/08 06:10:00;;;;;;;2.17;1.20;;;;;;;;;;4992475;28;20496;-79
2022/03/08 06:12:25;;;;;;;2.10;1.10;;;;;;;;;;4996192;28;20037;-79
2022/03/08 06:14:51;;;;;;;2.08;1.20;;;;;;;;;;4994903;28;20038;-79
2022/03/08 06:17:16;;;;;;;1.55;0.98;;;;;;;;;;4995857;28;20041;-79
2022/03/08 06:19:42;;;;;;;1.75;1.15;;;;;;;;;;4995584;28;20112;-80
2022/03/08 06:22:07;;;;;;;2.08;0.93;;;;;;;;;;5012346;28;20463;-79
2022/03/08 06:24:33;;;;;;;2.10;1.20;;;;;;;;;;4980823;28;20040;-79
2022/03/08 06:26:58;;;;;;;2.08;1.13;;;;;;;;;;4979485;28;20041;-79
2022/03/08 06:29:24;;;;;;;2.00;1.00;;;;;;;;;;4995576;28;20038;-80
2022/03/08 06:31:51;;;;;;;1.70;1.00;;;;;;;;;;4995538;28;20041;-81
2022/03/08 06:34:17;;;;;;;2.13;1.10;;;;;;;;;;4995412;28;20062;-80
2022/03/08 06:36:43;;;;;;;1.70;0.75;;;;;;;;;;4995505;28;20048;-78
2022/03/08 06:39:08;;;;;;;2.22;1.17;;;;;;;;;;4995300;28;20048;-78
2022/03/08 06:41:34;;;;;;;1.88;1.00;;;;;;;;;;4994572;28;20049;-81
2022/03/08 06:44:00;;;;;;;2.47;1.10;;;;;;;;;;4995380;28;20403;-82
2022/03/08 06:46:25;;;;;;;2.08;1.08;;;;;;;;;;4994946;28;20125;-80
2022/03/08 06:48:51;;;;;;;2.42;1.30;;;;;;;;;;4995133;28;20571;-80
2022/03/08 06:51:16;;;;;;;2.78;1.38;;;;;;;;;;4995116;28;20037;-79
2022/03/08 06:53:42;;;;;;;2.40;1.30;;;;;;;;;;4995229;28;20176;-79
2022/03/08 06:56:07;;;;;;;2.95;1.00;;;;;;;;;;5011767;28;20551;-80
2022/03/08 06:58:33;;;;;;;3.03;1.27;;;;;;;;;;4991722;28;20077;-79
2022/03/08 07:00:58;;;;;;;3.83;1.40;;;;;;;;;;4992010;28;20038;-80
2022/03/08 07:03:24;;;;;;;3.20;1.25;;;;;;;;;;4992110;28;20092;-79
2022/03/08 07:05:49;;;;;;;4.93;1.25;;;;;;;;;;4991552;28;20052;-79
2022/03/08 07:08:15;;;;;;;4.15;1.13;;;;;;;;;;4991608;28;20169;-79
2022/03/08 07:10:40;;;;;;;4.28;1.55;;;;;;;;;;4991589;28;20046;-78
2022/03/08 07:13:05;;;;;;;4.75;1.50;;;;;;;;;;5006990;28;20034;-80
2022/03/08 07:15:32;;;;;;;5.60;1.90;;;;;;;;;;4991642;28;20045;-80
2022/03/08 07:17:58;;;;;;;6.65;1.50;;;;;;;;;;4991318;28;20049;-80
2022/03/08 07:20:23;;;;;;;3.28;1.23;;;;;;;;;;4975401;28;20409;-79
2022/03/08 07:22:49;;;;;;;5.82;1.65;;;;;;;;;;4975015;28;20041;-80
2022/03/08 07:25:16;;;;;;;7.10;2.05;;;;;;;;;;4974735;28;20026;-80
2022/03/08 07:27:42;;;;;;;6.97;1.88;;;;;;;;;;4975466;28;20042;-79
2022/03/08 07:30:08;;;;;;;4.63;2.10;;;;;;;;;;4991663;28;20034;-80
2022/03/08 07:32:33;;;;;;;3.38;1.50;;;;;;;;;;4991402;28;20552;-80
2022/03/08 07:34:59;;;;;;;4.43;1.95;;;;;;;;;;4990986;28;20034;-80
2022/03/08 07:37:24;;;;;;;20.60;3.65;;;;;;;;;;4974979;28;20042;-81
2022/03/08 07:39:50;;;;;;;10.13;2.30;;;;;;;;;;4974662;28;20567;-79
2022/03/08 07:42:15;;;;;;;7.28;2.70;;;;;;;;;;4990696;28;20493;-80
2022/03/08 07:44:41;;;;;;;7.55;2.30;;;;;;;;;;4990890;28;20460;-80
2022/03/08 07:47:08;;;;;;;14.82;2.42;;;;;;;;;;4990705;28;20039;-80
2022/03/08 07:49:34;;;;;;;4.53;2.55;;;;;;;;;;4990835;28;20030;-80
2022/03/08 07:51:59;;;;;;;6.35;2.63;;;;;;;;;;4990267;28;20153;-81
2022/03/08 07:54:25;;;;;;;6.18;2.30;;;;;;;;;;4990951;28;20038;-80
2022/03/08 07:56:50;;;;;;;10.70;2.72;;;;;;;;;;4993703;28;20084;-80
2022/03/08 07:59:16;;;;;;;9.30;2.50;;;;;;;;;;4990286;28;20113;-79
2022/03/08 08:01:41;;;;;;;7.93;2.47;;;;;;;;;;4990806;28;20170;-79
2022/03/08 08:04:07;;;;;;;37.88;4.78;;;;;;;;;;4990214;28;20093;-78
2022/03/08 08:06:32;;;;;;;16.98;3.63;;;;;;;;;;4991000;28;20042;-79
2022/03/08 08:08:57;;;;;;;15.00;3.10;;;;;;;;;;4974342;28;20390;-78
2022/03/08 08:11:23;;;;;;;10.20;2.97;;;;;;;;;;4995803;28;20034;-78
2022/03/08 08:13:49;;;;;;;6.38;2.17;;;;;;;;;;4994197;28;20033;-78
2022/03/08 08:16:16;;;;;;;5.97;2.20;;;;;;;;;;5010069;28;20517;-78
2022/03/08 08:18:41;;;;;;;5.45;2.00;;;;;;;;;;4993618;28;20050;-78
2022/03/08 08:21:07;;;;;;;7.88;2.20;;;;;;;;;;4977662;28;20507;-78
2022/03/08 08:23:33;;;;;;;3.22;1.75;;;;;;;;;;4977672;28;20029;-79
2022/03/08 08:25:59;;;;;;;7.32;2.00;;;;;;;;;;4993772;28;20042;-78
2022/03/08 08:28:24;;;;;;;6.13;1.67;;;;;;;;;;4994391;28;20044;-78
2022/03/08 08:30:49;;;;;;;4.10;2.03;;;;;;;;;;4993804;28;20049;-78
2022/03/08 08:33:15;;;;;;;8.77;2.38;;;;;;;;;;4993614;28;20471;-79
2022/03/08 08:35:40;;;;;;;6.75;2.30;;;;;;;;;;4992176;28;20274;-79
2022/03/08 08:38:06;;;;;;;5.28;2.25;;;;;;;;;;4992996;28;20079;-79
2022/03/08 08:40:34;;;;;;;8.13;2.05;;;;;;;;;;4993918;28;20050;-79
2022/03/08 08:43:00;;;;;;;6.10;1.90;;;;;;;;;;5010221;28;20034;-79
2022/03/08 08:45:25;;;;;;;7.20;2.50;;;;;;;;;;5010267;28;20152;-79
2022/03/08 08:47:51;;;;;;;7.28;2.80;;;;;;;;;;4992918;28;20034;-79
2022/03/08 08:50:16;;;;;;;5.07;2.28;;;;;;;;;;4993349;28;20041;-80
2022/03/08 08:52:42;;;;;;;5.68;1.42;;;;;;;;;;4993387;28;20033;-80
2022/03/08 08:55:07;;;;;;;6.38;2.03;;;;;;;;;;5009337;28;20456;-79
2022/03/08 08:57:33;;;;;;;7.75;1.83;;;;;;;;;;5008746;28;20370;-79
2022/03/08 08:59:58;;;;;;;4.07;1.80;;;;;;;;;;4990430;28;20126;-78
2022/03/08 09:02:24;;;;;;;6.63;2.03;;;;;;;;;;4974052;28;20030;-79
2022/03/08 09:04:49;;;;;;;5.80;2.00;;;;;;;;;;4992685;28;20038;-79
2022/03/08 09:07:15;;;;;;;4.20;1.83;;;;;;;;;;4993560;28;20408;-80
2022/03/08 09:09:40;;;;;;;5.43;2.30;;;;;;;;;;4993879;28;20428;-77
2022/03/08 09:12:06;;;;;;;13.75;2.03;;;;;;;;;;4997324;28;20061;-77
2022/03/08 09:14:31;;;;;;;9.70;2.00;;;;;;;;;;4997187;28;20046;-76
2022/03/08 09:16:57;;;;;;;4.40;1.95;;;;;;;;;;5013117;28;20045;-76
2022/03/08 09:19:22;;;;;;;5.88;1.77;;;;;;;;;;5013443;28;20448;-77
2022/03/08 09:21:48;;;;;;;4.43;1.70;;;;;;;;;;4997049;28;20030;-77
2022/03/08 09:24:13;;;;;;;3.25;1.55;;;;;;;;;;5013099;28;20037;-77
2022/03/08 09:26:39;;;;;;;5.80;1.50;;;;;;;;;;4996861;28;20038;-77
2022/03/08 09:29:05;;;;;;;3.85;1.45;;;;;;;;;;4996919;28;20041;-77
2022/03/08 09:31:30;;;;;;;6.45;1.63;;;;;;;;;;4980212;28;20034;-77
2022/03/08 09:33:55;;;;;;;3.08;1.20;;;;;;;;;;4995501;28;20121;-77
2022/03/08 09:36:21;;;;;;;5.35;1.60;;;;;;;;;;4995157;28;20182;-77
2022/03/08 09:38:46;;;;;;;6.53;4.30;;;;;;;;;;4994976;28;20054;-77
2022/03/08 09:41:12;;;;;;;13.23;9.43;;;;;;;;;;4995984;28;20042;-77
2022/03/08 09:43:37;;;;;;;10.38;7.43;;;;;;;;;;4996549;28;20042;-77
2022/03/08 09:46:03;;;;;;;7.82;5.10;;;;;;;;;;5010890;28;20034;-77
2022/03/08 09:48:29;;;;;;;9.40;5.97;;;;;;;;;;4996136;28;20121;-77
2022/03/08 09:50:56;;;;;;;6.43;4.50;;;;;;;;;;4996273;28;20044;-77
2022/03/08 09:53:22;;;;;;;7.75;3.70;;;;;;;;;;4997002;28;20038;-77
2022/03/08 09:55:47;;;;;;;7.95;4.00;;;;;;;;;;4996171;28;20061;-77
2022/03/08 09:58:12;;;;;;;6.05;3.00;;;;;;;;;;5012316;28;20037;-78
2022/03/08 10:00:38;;;;;;;6.22;3.15;;;;;;;;;;5028739;28;20034;-78
2022/03/08 10:03:08;;;;;;;5.93;3.00;;;;;;;;;;5012456;28;20048;-78
2022/03/08 10:05:39;;;;;;;4.82;3.00;;;;;;;;;;5012411;28;20059;-78
2022/03/08 10:08:10;;;;;;;4.80;3.00;;;;;;;;;;5011905;28;20129;-76
2022/03/08 10:10:51;;;;;;;4.75;2.65;;;;;;;;;;5013836;28;20042;-78
2022/03/08 10:13:17;;;;;;;5.50;2.40;;;;;;;;;;5012484;28;20385;-78
2022/03/08 10:15:42;;;;;;;4.32;1.80;;;;;;;;;;4995491;28;20030;-78
2022/03/08 10:18:08;;;;;;;4.53;2.00;;;;;;;;;;4995655;28;20046;-77
2022/03/08 10:20:33;;;;;;;4.40;2.53;;;;;;;;;;5012181;28;20061;-77
2022/03/08 10:23:00;;;;;;;4.82;1.90;;;;;;;;;;4992402;28;20096;-76
2022/03/08 10:25:28;;;;;;;5.00;1.98;;;;;;;;;;4976214;28;20069;-77
2022/03/08 10:27:53;;;;;;;4.40;2.10;;;;;;;;;;4992567;28;20039;-77
2022/03/08 10:30:19;;;;;;;3.50;1.58;;;;;;;;;;5008527;28;20102;-77
2022/03/08 10:32:45;;;;;;;4.38;2.05;;;;;;;;;;4992278;28;20493;-77
2022/03/08 10:35:11;;;;;;;4.28;1.70;;;;;;;;;;5002627;28;20031;-77
2022/03/08 10:37:39;;;;;;;1.70;0.90;;;;;;;;;;4995098;28;20045;-78
2022/03/08 10:40:07;;;;;;;4.55;1.77;;;;;;;;;;4995351;28;20581;-77
2022/03/08 10:42:37;;;;;;;3.83;1.60;;;;;;;;;;4995575;28;20042;-78
2022/03/08 10:45:04;;;;;;;4.40;1.77;;;;;;;;;;4995546;28;20030;-78
2022/03/08 10:47:40;;;;;;;2.80;1.70;;;;;;;;;;5011353;28;20037;-77
2022/03/08 10:50:06;;;;;;;3.03;1.25;;;;;;;;;;4979593;28;20045;-77
2022/03/08 10:52:33;;;;;;;2.83;1.58;;;;;;;;;;4995104;28;20542;-76
2022/03/08 10:55:11;;;;;;;3.22;1.40;;;;;;;;;;5011677;28;20041;-76
2022/03/08 10:57:37;;;;;;;2.60;1.40;;;;;;;;;;5012636;28;20427;-76
2022/03/08 11:00:08;;;;;;;3.13;1.88;;;;;;;;;;5007678;28;20434;-76
2022/03/08 11:02:33;;;;;;;4.00;2.10;;;;;;;;;;4991769;28;20038;-76
2022/03/08 11:05:09;;;;;;;3.65;1.55;;;;;;;;;;4991490;28;20091;-77
2022/03/08 11:07:38;;;;;;;2.17;1.15;;;;;;;;;;4991708;28;20046;-76
2022/03/08 11:10:08;;;;;;;2.33;1.23;;;;;;;;;;4991963;28;20043;-76
2022/03/08 11:12:34;;;;;;;3.35;1.65;;;;;;;;;;5006493;28;20497;-77
2022/03/08 11:15:01;;;;;;;3.30;1.38;;;;;;;;;;5012135;28;20037;-76
2022/03/08 11:17:27;;;;;;;2.80;1.20;;;;;;;;;;4995291;28;20160;-77
2022/03/08 11:19:52;;;;;;;2.55;1.20;;;;;;;;;;4978339;28;20064;-76
2022/03/08 11:22:18;;;;;;;2.20;1.20;;;;;;;;;;5010869;28;20119;-77
2022/03/08 11:24:43;;;;;;;2.20;1.33;;;;;;;;;;5010909;28;20547;-77
2022/03/08 11:27:09;;;;;;;2.97;1.23;;;;;;;;;;4993505;28;20137;-77
2022/03/08 11:29:34;;;;;;;3.08;1.50;;;;;;;;;;4994446;28;20042;-76
2022/03/08 11:32:00;;;;;;;4.10;1.33;;;;;;;;;;5010918;28;20049;-77
2022/03/08 11:34:38;;;;;;;7.30;2.42;;;;;;;;;;4994551;28;20030;-76
2022/03/08 11:37:07;;;;;;;6.03;2.95;;;;;;;;;;4994753;28;20401;-76
2022/03/08 11:39:39;;;;;;;7.05;3.88;;;;;;;;;;4994810;28;20504;-77
2022/03/08 11:42:16;;;;;;;5.72;3.05;;;;;;;;;;5010785;28;20042;-76
2022/03/08 11:44:42;;;;;;;5.95;3.30;;;;;;;;;;5010752;28;20046;-76
2022/03/08 11:47:12;;;;;;;4.43;2.45;;;;;;;;;;4994293;28;20046;-76
2022/03/08 11:49:38;;;;;;;5.22;3.03;;;;;;;;;;4994559;28;20060;-77
2022/03/08 11:52:17;;;;;;;4.75;2.80;;;;;;;;;;5010201;28;20053;-76
2022/03/08 11:54:51;;;;;;;4.57;2.45;;;;;;;;;;5010830;28;20579;-76
2022/03/08 11:57:51;;;;;;;4.82;2.88;;;;;;;;;;4994274;28;20022;-76
2022/03/08 12:00:32;;;;;;;6.97;2.80;;;;;;;;;;5004834;28;20069;-76
2022/03/08 12:02:59;;;;;;;5.43;2.30;;;;;;;;;;4976017;28;20045;-76
2022/03/08 12:05:37;;;;;;;4.53;2.38;;;;;;;;;;4990984;28;20041;-76
2022/03/08 12:08:23;;;;;;;6.15;3.17;;;;;;;;;;4991811;28;20081;-76
2022/03/08 12:10:49;;;;;;;5.07;3.40;;;;;;;;;;4992066;28;20027;-76
2022/03/08 12:13:15;;;;;;;4.95;2.63;;;;;;;;;;5010669;28;20124;-76
2022/03/08 12:16:25;;;;;;;4.65;2.30;;;;;;;;;;4978032;28;20034;-76
2022/03/08 12:18:52;;;;;;;4.25;2.40;;;;;;;;;;4950727;29;20040;-76
2022/03/08 12:21:17;;;;;;;5.30;2.75;;;;;;;;;;4919240;29;20035;-76
2022/03/08 12:24:03;;;;;;;5.30;2.67;;;;;;;;;;4971920;28;20532;-76
2022/03/08 12:26:37;;;;;;;4.53;2.65;;;;;;;;;;5006658;28;20041;-77
2022/03/08 12:29:20;;;;;;;4.80;2.50;;;;;;;;;;4975063;28;20057;-77
2022/03/08 12:31:58;;;;;;;5.93;2.20;;;;;;;;;;5007545;28;20108;-76
2022/03/08 12:34:57;;;;;;;5.82;2.35;;;;;;;;;;4995398;28;20053;-77
2022/03/08 12:37:56;;;;;;;5.97;2.35;;;;;;;;;;5010024;28;20077;-77
2022/03/08 12:40:29;;;;;;;4.88;2.80;;;;;;;;;;4997362;28;20125;-77
2022/03/08 12:43:05;;;;;;;6.78;2.50;;;;;;;;;;5014382;28;20042;-77
2022/03/08 12:45:32;;;;;;;5.20;3.05;;;;;;;;;;5014312;28;20034;-77
2022/03/08 12:47:57;;;;;;;6.30;4.47;;;;;;;;;;4997393;28;20049;-76
2022/03/08 12:50:24;;;;;;;7.30;4.15;;;;;;;;;;5014759;28;20409;-77
2022/03/08 12:52:49;;;;;;;13.30;7.47;;;;;;;;;;5014888;28;20117;-77
2022/03/08 12:55:20;;;;;;;140.63;121.25;;;;;;;;;;5013619;28;20125;-77
2022/03/08 12:57:50;;;;;;;272.85;202.25;;;;;;;;;;4997487;28;20042;-77
2022/03/08 13:00:28;;;;;;;230.48;158.18;;;;;;;;;;4997673;28;20041;-77
2022/03/08 13:02:54;;;;;;;176.32;123.28;;;;;;;;;;5013982;28;20045;-77
2022/03/08 13:05:32;;;;;;;143.00;103.57;;;;;;;;;;4997042;28;20113;-77
2022/03/08 13:07:58;;;;;;;122.03;88.20;;;;;;;;;;5013631;28;20368;-77
2022/03/08 13:10:24;;;;;;;106.15;76.72;;;;;;;;;;5013235;28;20424;-77
2022/03/08 13:13:02;;;;;;;95.47;66.47;;;;;;;;;;5010113;28;20042;-77
2022/03/08 13:15:28;;;;;;;77.57;54.78;;;;;;;;;;5009770;28;20415;-77
2022/03/08 13:17:54;;;;;;;68.43;48.80;;;;;;;;;;4993320;28;20052;-77
2022/03/08 13:20:33;;;;;;;59.58;41.55;;;;;;;;;;5026560;28;20109;-77
2022/03/08 13:23:01;;;;;;;50.05;36.88;;;;;;;;;;5013898;28;20026;-77
2022/03/08 13:25:27;;;;;;;45.78;34.67;;;;;;;;;;4996026;28;20465;-77
2022/03/08 13:27:54;;;;;;;40.00;31.50;;;;;;;;;;4997116;28;20117;-77
2022/03/08 13:30:21;;;;;;;36.33;25.13;;;;;;;;;;5013163;28;20037;-77
2022/03/08 13:32:46;;;;;;;153.63;99.40;;;;;;;;;;5013139;28;20038;-77
2022/03/08 13:35:11;;;;;;;194.27;128.55;;;;;;;;;;4980417;28;20618;-77
2022/03/08 13:37:49;;;;;;;292.23;192.40;;;;;;;;;;4995974;28;20056;-78
2022/03/08 13:40:28;;;;;;;532.05;394.08;;;;;;;;;;4997170;28;20038;-77
2022/03/08 13:42:56;;;;;;;525.60;391.98;;;;;;;;;;4996942;28;20065;-77
2022/03/08 13:45:21;;;;;;;440.17;320.92;;;;;;;;;;4996432;28;20105;-77
2022/03/08 13:47:51;;;;;;;409.90;294.73;;;;;;;;;;4996045;28;20049;-77
2022/03/08 13:50:18;;;;;;;356.98;253.35;;;;;;;;;;4997064;28;20068;-77
2022/03/08 13:52:57;;;;;;;317.10;225.68;;;;;;;;;;4995917;28;20415;-77
2022/03/08 13:55:27;;;;;;;274.85;191.80;;;;;;;;;;5012443;28;20404;-77
2022/03/08 13:57:57;;;;;;;243.60;165.50;;;;;;;;;;4996451;28;20041;-77
2022/03/08 14:00:29;;;;;;;235.88;156.30;;;;;;;;;;4996463;28;20044;-77
2022/03/08 14:02:56;;;;;;;196.80;138.30;;;;;;;;;;5012579;28;20049;-77
2022/03/08 14:05:21;;;;;;;184.65;126.97;;;;;;;;;;4995975;28;20069;-77
2022/03/08 14:08:00;;;;;;;157.93;109.20;;;;;;;;;;5011944;28;20054;-77
2022/03/08 14:10:26;;;;;;;143.02;97.35;;;;;;;;;;5012417;28;20504;-77
2022/03/08 14:12:52;;;;;;;126.63;88.43;;;;;;;;;;5008851;28;20501;-77
2022/03/08 14:15:19;;;;;;;121.15;80.88;;;;;;;;;;4976509;28;20118;-77
2022/03/08 14:17:45;;;;;;;113.70;79.30;;;;;;;;;;4976414;28;20080;-77
2022/03/08 14:20:19;;;;;;;192.82;135.38;;;;;;;;;;4976355;28;20041;-77
2022/03/08 14:23:01;;;;;;;164.55;116.88;;;;;;;;;;5027911;28;20030;-77
2022/03/08 14:25:26;;;;;;;121.47;87.68;;;;;;;;;;4996076;28;20038;-77
2022/03/08 14:27:52;;;;;;;161.02;111.22;;;;;;;;;;4995460;28;20095;-77
2022/03/08 14:30:25;;;;;;;121.43;86.35;;;;;;;;;;4995717;28;20172;-77
2022/03/08 14:32:51;;;;;;;111.60;77.28;;;;;;;;;;5011996;28;20041;-77
2022/03/08 14:35:19;;;;;;;114.05;81.30;;;;;;;;;;4995326;28;20084;-77
2022/03/08 14:37:45;;;;;;;107.93;74.93;;;;;;;;;;4977203;28;20054;-77